createdAt,value
2023-01-19T00:00:49.511Z,7.35
2023-01-19T00:03:16.341Z,8.68
2023-01-19T00:05:43.857Z,7.93
2023-01-19T00:08:17.624Z,9.27
2023-01-19T00:10:50.891Z,8.38
2023-01-19T00:13:17.744Z,6.88
2023-01-19T00:15:45.319Z,9.02
2023-01-19T00:18:12.052Z,9.23
2023-01-19T00:20:42.045Z,7.85
2023-01-19T00:23:09.367Z,14.75
2023-01-19T00:25:42.200Z,5.65
2023-01-19T00:28:10.278Z,8.90
2023-01-19T00:30:37.507Z,7.97
2023-01-19T00:33:04.345Z,8.13
2023-01-19T00:35:31.301Z,5.80
2023-01-19T00:37:58.992Z,7.38
2023-01-19T00:40:25.749Z,11.93
2023-01-19T00:42:52.548Z,5.88
2023-01-19T00:45:22.055Z,5.47
2023-01-19T00:47:50.183Z,10.57
2023-01-19T00:50:17.301Z,7.43
2023-01-19T00:52:45.473Z,9.55
2023-01-19T00:55:14.240Z,5.45
2023-01-19T00:57:41.293Z,7.38
2023-01-19T01:00:11.873Z,8.73
2023-01-19T01:02:39.917Z,8.20
2023-01-19T01:05:07.397Z,7.57
2023-01-19T01:07:40.696Z,6.63
2023-01-19T01:10:27.929Z,6.97
2023-01-19T01:13:20.554Z,7.47
2023-01-19T01:15:41.837Z,10.05
2023-01-19T01:18:08.569Z,5.05
2023-01-19T01:20:37.364Z,6.70
2023-01-19T01:23:04.298Z,7.55
2023-01-19T01:25:31.485Z,7.82
2023-01-19T01:27:58.047Z,14.15
2023-01-19T01:30:24.720Z,10.70
2023-01-19T01:32:51.282Z,6.78
2023-01-19T01:35:18.114Z,10.75
2023-01-19T01:37:44.744Z,10.23
2023-01-19T01:40:14.133Z,8.23
2023-01-19T01:42:42.326Z,9.50
2023-01-19T01:45:40.839Z,10.68
2023-01-19T01:48:13.229Z,8.15
2023-01-19T01:51:11.080Z,8.25
2023-01-19T01:53:39.413Z,8.85
2023-01-19T01:56:10.013Z,10.65
2023-01-19T01:58:37.735Z,13.10
2023-01-19T02:01:24.590Z,10.07
2023-01-19T02:03:51.848Z,7.05
2023-01-19T02:06:18.489Z,11.52
2023-01-19T02:09:12.125Z,7.85
2023-01-19T02:11:57.902Z,7.47
2023-01-19T02:16:51.184Z,7.13
2023-01-19T02:19:37.552Z,7.13
2023-01-19T02:22:11.788Z,12.45
2023-01-19T02:24:38.509Z,11.95
2023-01-19T02:27:05.334Z,9.48
2023-01-19T02:29:32.691Z,11.00
2023-01-19T02:31:59.761Z,7.80
2023-01-19T02:34:26.555Z,7.63
2023-01-19T02:36:56.455Z,11.30
2023-01-19T02:39:45.232Z,10.80
2023-01-19T02:42:19.345Z,12.35
2023-01-19T02:44:49.009Z,10.75
2023-01-19T02:47:16.073Z,8.23
2023-01-19T02:49:42.621Z,5.57
2023-01-19T02:52:17.231Z,6.65
2023-01-19T02:55:05.807Z,9.02
2023-01-19T02:57:32.352Z,7.90
2023-01-19T03:00:21.126Z,12.90
2023-01-19T03:02:57.846Z,10.18
2023-01-19T03:05:48.967Z,6.72
2023-01-19T03:08:35.725Z,11.80
2023-01-19T03:11:09.714Z,6.88
2023-01-19T03:13:42.664Z,7.22
2023-01-19T03:16:36.469Z,7.22
2023-01-19T03:19:10.729Z,8.90
2023-01-19T03:21:39.710Z,17.25
2023-01-19T03:24:10.412Z,11.07
2023-01-19T03:26:47.840Z,7.85
2023-01-19T03:29:17.373Z,7.93
2023-01-19T03:31:47.680Z,13.43
2023-01-19T03:34:16.922Z,14.95
2023-01-19T03:36:49.015Z,7.78
2023-01-19T03:39:21.450Z,8.23
2023-01-19T03:41:49.822Z,16.27
2023-01-19T03:44:16.996Z,9.32
2023-01-19T03:46:45.931Z,9.07
2023-01-19T03:49:12.553Z,7.00
2023-01-19T03:51:39.680Z,5.65
2023-01-19T03:54:07.631Z,10.18
2023-01-19T03:56:34.267Z,7.72
2023-01-19T03:59:00.863Z,12.23
2023-01-19T04:01:27.766Z,9.23
2023-01-19T04:03:54.547Z,10.50
2023-01-19T04:06:21.360Z,7.10
2023-01-19T04:08:49.846Z,7.90
2023-01-19T04:11:16.820Z,9.30
2023-01-19T04:13:44.671Z,10.38
2023-01-19T04:16:12.157Z,15.60
2023-01-19T04:18:40.467Z,12.77
2023-01-19T04:21:07.892Z,7.70
2023-01-19T04:23:34.883Z,7.93
2023-01-19T04:26:04.131Z,7.90
2023-01-19T04:28:31.730Z,14.23
2023-01-19T04:30:58.618Z,8.23
2023-01-19T04:33:27.681Z,7.30
2023-01-19T04:35:55.965Z,5.55
2023-01-19T04:38:23.935Z,8.02
2023-01-19T04:40:52.540Z,9.13
2023-01-19T04:43:23.062Z,11.07
2023-01-19T04:45:50.696Z,5.45
2023-01-19T04:48:18.486Z,7.25
2023-01-19T04:50:45.496Z,8.32
2023-01-19T04:53:13.569Z,5.75
2023-01-19T04:55:40.589Z,7.25
2023-01-19T04:58:07.160Z,7.43
2023-01-19T05:00:33.806Z,5.60
2023-01-19T05:03:01.555Z,4.45
2023-01-19T05:05:28.742Z,5.20
2023-01-19T05:07:55.423Z,5.68
2023-01-19T05:10:22.005Z,7.60
2023-01-19T05:12:48.637Z,9.23
2023-01-19T05:15:15.267Z,7.10
2023-01-19T05:17:42.014Z,9.35
2023-01-19T05:20:11.075Z,7.65
2023-01-19T05:22:39.090Z,9.00
2023-01-19T05:25:08.689Z,6.85
2023-01-19T05:27:36.720Z,8.80
2023-01-19T05:30:05.030Z,3.95
2023-01-19T05:32:31.615Z,5.20
2023-01-19T05:34:58.289Z,4.82
2023-01-19T05:37:24.898Z,6.97
2023-01-19T05:39:51.783Z,7.47
2023-01-19T05:42:18.321Z,6.28
2023-01-19T05:44:44.939Z,4.65
2023-01-19T05:47:11.735Z,4.00
2023-01-19T05:49:38.393Z,4.80
2023-01-19T05:52:04.919Z,9.23
2023-01-19T05:54:31.455Z,7.28
2023-01-19T05:56:58.179Z,5.85
2023-01-19T05:59:24.783Z,4.32
2023-01-19T06:01:52.506Z,5.22
2023-01-19T06:04:20.129Z,4.65
2023-01-19T06:06:50.713Z,4.18
2023-01-19T06:09:17.815Z,4.43
2023-01-19T06:11:45.474Z,8.25
2023-01-19T06:14:12.486Z,5.95
2023-01-19T06:16:39.810Z,5.55
2023-01-19T06:19:06.807Z,5.47
2023-01-19T06:21:34.276Z,8.85
2023-01-19T06:24:01.160Z,6.57
2023-01-19T06:26:27.739Z,6.88
2023-01-19T06:28:54.378Z,11.93
2023-01-19T06:31:21.177Z,5.20
2023-01-19T06:33:48.025Z,6.80
2023-01-19T06:36:14.617Z,4.07
2023-01-19T06:38:41.236Z,7.22
2023-01-19T06:41:07.791Z,7.68
2023-01-19T06:43:34.433Z,6.75
2023-01-19T06:46:01.146Z,7.70
2023-01-19T06:48:28.069Z,6.70
2023-01-19T06:50:54.895Z,8.13
2023-01-19T06:53:22.339Z,9.18
2023-01-19T06:55:48.985Z,6.82
2023-01-19T06:58:16.021Z,6.95
2023-01-19T07:00:43.055Z,7.32
2023-01-19T07:03:18.639Z,6.35
2023-01-19T07:05:45.235Z,5.43
2023-01-19T07:08:11.862Z,6.47
2023-01-19T07:11:25.245Z,6.78
2023-01-19T07:13:25.020Z,6.35
2023-01-19T07:15:51.615Z,6.95
2023-01-19T07:18:18.293Z,8.13
2023-01-19T07:20:46.695Z,4.93
2023-01-19T07:23:13.250Z,6.70
2023-01-19T07:25:40.036Z,11.27
2023-01-19T07:28:06.803Z,8.25
2023-01-19T07:30:33.484Z,17.20
2023-01-19T07:33:00.510Z,10.90
2023-01-19T07:35:27.324Z,6.10
2023-01-19T07:37:54.063Z,6.45
2023-01-19T07:40:22.161Z,7.88
2023-01-19T07:42:51.873Z,7.68
2023-01-19T07:45:20.504Z,8.55
2023-01-19T07:47:48.839Z,7.72
2023-01-19T07:50:17.033Z,3.75
2023-01-19T07:52:44.627Z,10.38
2023-01-19T07:55:11.179Z,7.22
2023-01-19T07:57:37.848Z,4.05
2023-01-19T08:00:04.988Z,3.25
2023-01-19T08:02:39.121Z,3.72
2023-01-19T08:05:06.009Z,3.92
2023-01-19T08:07:34.539Z,3.90
2023-01-19T08:10:01.051Z,3.53
2023-01-19T08:12:27.681Z,6.03
2023-01-19T08:14:54.332Z,7.28
2023-01-19T08:17:20.939Z,3.40
2023-01-19T08:19:47.442Z,3.63
2023-01-19T08:22:14.230Z,5.93
2023-01-19T08:24:40.732Z,3.75
2023-01-19T08:27:09.697Z,3.08
2023-01-19T08:29:37.103Z,4.38
2023-01-19T08:32:04.607Z,2.72
2023-01-19T08:34:31.860Z,5.93
2023-01-19T08:36:59.427Z,4.45
2023-01-19T08:39:27.243Z,7.90
2023-01-19T08:41:54.913Z,6.15
2023-01-19T08:44:21.693Z,5.35
2023-01-19T08:46:48.304Z,7.35
2023-01-19T08:49:15.692Z,10.27
2023-01-19T08:51:42.273Z,5.80
2023-01-19T08:54:09.394Z,5.45
2023-01-19T08:56:36.693Z,3.88
2023-01-19T08:59:09.906Z,4.55
2023-01-19T09:01:37.352Z,7.75
2023-01-19T09:04:04.395Z,11.38
2023-01-19T09:06:30.987Z,7.97
2023-01-19T09:08:57.637Z,3.63
2023-01-19T09:11:24.310Z,11.43
2023-01-19T09:13:50.818Z,10.45
2023-01-19T09:16:17.467Z,7.30
2023-01-19T09:18:45.665Z,8.93
2023-01-19T09:21:12.339Z,7.05
2023-01-19T09:23:38.828Z,5.82
2023-01-19T09:26:06.157Z,12.77
2023-01-19T09:28:33.061Z,6.72
2023-01-19T09:31:00.034Z,6.97
2023-01-19T09:33:26.625Z,10.85
2023-01-19T09:35:53.302Z,6.72
2023-01-19T09:38:20.380Z,4.75
2023-01-19T09:40:55.901Z,8.70
2023-01-19T09:43:37.336Z,6.25
2023-01-19T09:46:15.148Z,8.13
2023-01-19T09:48:52.290Z,6.22
2023-01-19T09:51:22.900Z,9.70
2023-01-19T09:53:56.343Z,6.55
2023-01-19T09:56:23.888Z,6.88
2023-01-19T09:58:51.575Z,7.18
2023-01-19T10:01:38.481Z,8.60
2023-01-19T10:04:31.913Z,15.90
2023-01-19T10:07:44.184Z,5.40
2023-01-19T10:10:21.507Z,8.23
2023-01-19T10:13:11.390Z,9.48
2023-01-19T10:16:00.955Z,6.68
2023-01-19T10:18:35.712Z,7.47
2023-01-19T10:21:10.429Z,14.15
2023-01-19T10:23:43.642Z,13.02
2023-01-19T10:26:16.775Z,6.80
2023-01-19T10:28:46.873Z,19.92
2023-01-19T10:31:16.898Z,8.50
2023-01-19T10:33:43.496Z,5.65
2023-01-19T10:36:17.671Z,13.80
2023-01-19T10:38:45.084Z,10.70
2023-01-19T10:41:22.144Z,9.02
2023-01-19T10:43:49.425Z,13.43
2023-01-19T10:46:33.921Z,10.88
2023-01-19T10:49:00.805Z,6.82
2023-01-19T10:51:28.653Z,11.23
2023-01-19T10:54:02.972Z,6.00
2023-01-19T10:56:35.907Z,6.93
2023-01-19T10:59:06.550Z,11.40
2023-01-19T11:01:36.931Z,9.05
2023-01-19T11:04:26.907Z,12.30
2023-01-19T11:07:13.048Z,6.57
2023-01-19T11:09:39.577Z,7.35
2023-01-19T11:12:19.790Z,8.63
2023-01-19T11:14:47.534Z,13.50
2023-01-19T11:17:25.169Z,16.70
2023-01-19T11:19:57.868Z,15.70
2023-01-19T11:22:33.014Z,17.17
2023-01-19T11:25:02.026Z,14.45
2023-01-19T11:27:30.940Z,11.48
2023-01-19T11:30:17.672Z,13.95
2023-01-19T11:32:46.573Z,11.23
2023-01-19T11:35:36.837Z,13.10
2023-01-19T11:38:12.147Z,13.75
2023-01-19T11:43:05.765Z,14.43
2023-01-19T11:45:34.498Z,27.67
2023-01-19T11:48:05.773Z,13.05
2023-01-19T11:50:41.490Z,10.32
2023-01-19T11:53:28.121Z,16.75
2023-01-19T11:56:04.654Z,14.45
2023-01-19T11:58:33.156Z,16.75
2023-01-19T12:01:10.964Z,11.45
2023-01-19T12:03:43.119Z,12.63
2023-01-19T12:06:18.163Z,10.98
2023-01-19T12:08:49.967Z,13.52
2023-01-19T12:11:21.506Z,10.95
2023-01-19T12:13:49.177Z,13.82
2023-01-19T12:16:26.275Z,14.35
2023-01-19T12:19:00.465Z,10.05
2023-01-19T12:21:27.250Z,13.93
2023-01-19T12:24:17.852Z,15.27
2023-01-19T12:26:57.056Z,11.50
2023-01-19T12:29:35.714Z,15.52
2023-01-19T12:32:14.558Z,15.38
2023-01-19T12:34:51.940Z,16.88
2023-01-19T12:37:28.781Z,18.42
2023-01-19T12:39:57.811Z,21.92
2023-01-19T12:42:25.843Z,12.23
2023-01-19T12:45:04.625Z,19.60
2023-01-19T12:47:31.669Z,17.67
2023-01-19T12:50:05.741Z,18.50
2023-01-19T12:52:51.329Z,17.92
2023-01-19T12:55:23.109Z,19.15
2023-01-19T12:58:07.173Z,16.98
2023-01-19T13:00:39.903Z,14.98
2023-01-19T13:03:18.515Z,18.00
2023-01-19T13:05:53.119Z,23.50
2023-01-19T13:08:22.404Z,21.02
2023-01-19T13:10:54.826Z,15.18
2023-01-19T13:13:31.554Z,18.30
2023-01-19T13:16:22.304Z,19.90
2023-01-19T13:18:55.922Z,25.30
2023-01-19T13:21:49.562Z,18.42
2023-01-19T13:24:19.397Z,14.70
2023-01-19T13:26:49.022Z,15.77
2023-01-19T13:29:22.650Z,11.60
2023-01-19T13:31:49.567Z,14.63
2023-01-19T13:34:22.774Z,28.73
2023-01-19T13:36:59.242Z,16.70
2023-01-19T13:39:36.984Z,26.23
2023-01-19T13:42:18.431Z,17.52
2023-01-19T13:44:52.327Z,14.80
2023-01-19T13:47:23.778Z,22.02
2023-01-19T13:49:55.780Z,20.67
2023-01-19T13:52:27.519Z,27.90
2023-01-19T13:54:59.870Z,28.92
2023-01-19T13:57:33.648Z,25.08
2023-01-19T14:00:19.462Z,31.33
2023-01-19T14:05:37.605Z,31.88
2023-01-19T14:08:12.303Z,29.35
2023-01-19T14:10:56.179Z,22.63
2023-01-19T14:13:25.116Z,21.38
2023-01-19T14:15:55.260Z,21.30
2023-01-19T14:18:30.010Z,19.23
2023-01-19T14:20:58.366Z,17.80
2023-01-19T14:23:40.299Z,17.83
2023-01-19T14:26:46.655Z,29.50
2023-01-19T14:29:21.510Z,20.50
2023-01-19T14:32:04.915Z,22.48
2023-01-19T14:34:42.559Z,28.92
2023-01-19T14:37:22.851Z,16.90
2023-01-19T14:40:01.583Z,20.77
2023-01-19T14:42:37.457Z,19.15
2023-01-19T14:45:16.776Z,24.90
2023-01-19T14:47:45.583Z,20.75
2023-01-19T14:50:29.400Z,19.05
2023-01-19T14:53:04.890Z,17.20
2023-01-19T14:55:55.435Z,16.63
2023-01-19T14:58:24.941Z,18.45
2023-01-19T15:00:55.652Z,16.30
2023-01-19T15:03:26.868Z,25.70
2023-01-19T15:06:03.532Z,22.65
2023-01-19T15:08:33.489Z,16.52
2023-01-19T15:11:28.526Z,11.63
2023-01-19T15:13:55.579Z,24.15
2023-01-19T15:16:23.572Z,22.95
2023-01-19T15:18:50.348Z,13.65
2023-01-19T15:21:23.412Z,13.27
2023-01-19T15:23:50.256Z,15.23
2023-01-19T15:26:22.081Z,11.95
2023-01-19T15:28:49.376Z,22.85
2023-01-19T15:31:18.569Z,12.73
2023-01-19T15:33:45.898Z,17.10
2023-01-19T15:36:15.293Z,17.35
2023-01-19T15:38:43.567Z,9.57
2023-01-19T15:41:26.580Z,18.75
2023-01-19T15:43:53.968Z,13.77
2023-01-19T15:46:20.986Z,9.27
2023-01-19T15:48:48.339Z,11.50
2023-01-19T15:51:17.824Z,10.85
2023-01-19T15:53:45.128Z,11.80
2023-01-19T15:56:19.520Z,15.73
2023-01-19T15:58:46.364Z,14.50
2023-01-19T16:01:15.084Z,11.68
2023-01-19T16:03:42.527Z,14.73
2023-01-19T16:06:10.159Z,14.93
2023-01-19T16:08:37.486Z,20.38
2023-01-19T16:11:10.337Z,14.63
2023-01-19T16:13:37.717Z,14.35
2023-01-19T16:16:06.648Z,12.68
2023-01-19T16:18:33.738Z,12.40
2023-01-19T16:21:01.148Z,14.20
2023-01-19T16:23:27.724Z,11.48
2023-01-19T16:26:07.646Z,22.42
2023-01-19T16:28:35.859Z,18.15
2023-01-19T16:31:02.936Z,17.05
2023-01-19T16:33:29.981Z,14.20
2023-01-19T16:35:56.641Z,16.48
2023-01-19T16:38:23.363Z,16.35
2023-01-19T16:40:50.042Z,15.98
2023-01-19T16:43:18.156Z,12.45
2023-01-19T16:45:58.681Z,15.20
2023-01-19T16:48:25.992Z,16.05
2023-01-19T16:51:04.670Z,13.07
2023-01-19T16:53:34.664Z,18.35
2023-01-19T16:56:06.497Z,16.05
2023-01-19T16:58:33.185Z,9.55
2023-01-19T17:00:59.852Z,12.93
2023-01-19T17:03:26.976Z,11.77
2023-01-19T17:05:53.524Z,17.23
2023-01-19T17:08:20.596Z,14.55
2023-01-19T17:10:47.928Z,16.20
2023-01-19T17:13:14.758Z,12.07
2023-01-19T17:15:41.473Z,12.88
2023-01-19T17:18:09.965Z,14.25
2023-01-19T17:20:36.648Z,16.05
2023-01-19T17:23:03.414Z,13.73
2023-01-19T17:25:30.068Z,20.80
2023-01-19T17:27:58.837Z,15.25
2023-01-19T17:30:25.582Z,21.73
2023-01-19T17:32:52.689Z,18.25
2023-01-19T17:35:19.287Z,15.43
2023-01-19T17:37:46.005Z,25.40
2023-01-19T17:40:12.762Z,18.00
2023-01-19T17:42:41.798Z,20.70
2023-01-19T17:45:10.798Z,12.52
2023-01-19T17:47:38.476Z,18.58
2023-01-19T17:50:05.472Z,15.90
2023-01-19T17:52:32.076Z,13.48
2023-01-19T17:54:58.613Z,23.45
2023-01-19T17:57:25.387Z,16.73
2023-01-19T17:59:51.968Z,18.30
2023-01-19T18:02:19.037Z,21.33
2023-01-19T18:04:45.710Z,16.90
2023-01-19T18:07:12.330Z,13.57
2023-01-19T18:09:38.817Z,17.85
2023-01-19T18:12:05.462Z,15.10
2023-01-19T18:14:31.936Z,17.35
2023-01-19T18:16:58.512Z,20.27
2023-01-19T18:19:25.192Z,20.17
2023-01-19T18:21:51.905Z,17.85
2023-01-19T18:24:18.586Z,20.50
2023-01-19T18:26:45.267Z,19.65
2023-01-19T18:29:11.814Z,18.10
2023-01-19T18:31:38.399Z,22.58
2023-01-19T18:34:04.956Z,19.42
2023-01-19T18:36:32.535Z,15.75
2023-01-19T18:39:02.277Z,19.92
2023-01-19T18:41:29.954Z,14.40
2023-01-19T18:43:58.708Z,22.83
2023-01-19T18:46:25.944Z,25.42
2023-01-19T18:48:52.927Z,18.38
2023-01-19T18:51:19.919Z,15.65
2023-01-19T18:53:46.628Z,20.45
2023-01-19T18:56:15.683Z,14.02
2023-01-19T18:58:43.282Z,20.00
2023-01-19T19:01:39.411Z,18.52
2023-01-19T19:04:07.067Z,16.33
2023-01-19T19:06:34.367Z,32.78
2023-01-19T19:09:01.018Z,13.70
2023-01-19T19:11:28.033Z,16.38
2023-01-19T19:14:00.283Z,18.55
2023-01-19T19:16:28.401Z,15.68
2023-01-19T19:18:55.621Z,21.98
2023-01-19T19:21:25.142Z,11.75
2023-01-19T19:23:56.462Z,19.90
2023-01-19T19:26:24.289Z,16.75
2023-01-19T19:28:50.937Z,16.48
2023-01-19T19:31:21.140Z,18.40
2023-01-19T19:33:48.964Z,18.05
2023-01-19T19:36:15.552Z,14.73
2023-01-19T19:38:44.264Z,15.43
2023-01-19T19:41:16.730Z,23.15
2023-01-19T19:43:43.551Z,17.17
2023-01-19T19:46:13.786Z,19.55
2023-01-19T19:48:40.465Z,19.30
2023-01-19T19:51:18.046Z,16.83
2023-01-19T19:53:46.135Z,21.48
2023-01-19T19:56:13.404Z,22.95
2023-01-19T19:58:41.895Z,31.05
2023-01-19T20:01:11.157Z,26.88
2023-01-19T20:03:38.578Z,21.52
2023-01-19T20:06:10.452Z,18.95
2023-01-19T20:08:37.089Z,21.20
2023-01-19T20:11:09.236Z,24.60
2023-01-19T20:13:38.328Z,21.30
2023-01-19T20:16:09.983Z,28.77
2023-01-19T20:18:38.713Z,23.50
2023-01-19T20:21:12.968Z,19.35
2023-01-19T20:23:40.557Z,20.27
2023-01-19T20:26:09.128Z,22.83
2023-01-19T20:28:37.235Z,21.55
2023-01-19T20:31:19.256Z,23.40
2023-01-19T20:33:47.901Z,20.05
2023-01-19T20:36:15.181Z,26.27
2023-01-19T20:38:42.401Z,30.48
2023-01-19T20:41:10.437Z,23.85
2023-01-19T20:43:37.423Z,19.13
2023-01-19T20:46:04.329Z,29.77
2023-01-19T20:48:31.299Z,26.63
2023-01-19T20:51:09.073Z,26.90
2023-01-19T20:53:36.917Z,21.08
2023-01-19T20:56:09.889Z,18.30
2023-01-19T20:58:37.415Z,25.55
2023-01-19T21:01:14.430Z,31.40
2023-01-19T21:03:42.274Z,19.20
2023-01-19T21:06:09.622Z,31.27
2023-01-19T21:08:36.665Z,26.13
2023-01-19T21:11:04.136Z,23.80
2023-01-19T21:13:31.621Z,19.55
2023-01-19T21:15:58.801Z,32.45
2023-01-19T21:18:27.738Z,24.67
2023-01-19T21:20:55.255Z,21.65
2023-01-19T21:23:22.132Z,27.02
2023-01-19T21:25:54.194Z,23.90
2023-01-19T21:28:22.610Z,22.33
2023-01-19T21:30:50.325Z,28.67
2023-01-19T21:33:17.477Z,28.23
2023-01-19T21:35:52.046Z,22.30
2023-01-19T21:38:19.667Z,25.00
2023-01-19T21:40:46.541Z,17.70
2023-01-19T21:43:13.721Z,20.35
2023-01-19T21:45:42.988Z,19.13
2023-01-19T21:48:09.997Z,18.63
2023-01-19T21:50:36.559Z,21.02
2023-01-19T21:53:05.866Z,22.40
2023-01-19T21:55:33.126Z,21.67
2023-01-19T21:57:59.671Z,20.58
2023-01-19T22:00:29.390Z,19.02
2023-01-19T22:03:03.816Z,20.02
2023-01-19T22:05:36.525Z,17.30
2023-01-19T22:08:04.822Z,22.63
2023-01-19T22:10:31.531Z,20.38
2023-01-19T22:12:58.141Z,27.70
2023-01-19T22:15:24.787Z,17.58
2023-01-19T22:17:51.523Z,19.63
2023-01-19T22:20:18.197Z,26.13
2023-01-19T22:22:45.203Z,20.02
2023-01-19T22:25:12.420Z,25.13
2023-01-19T22:27:39.252Z,18.60
2023-01-19T22:30:06.570Z,19.33
2023-01-19T22:32:33.157Z,16.27
2023-01-19T22:34:59.669Z,24.15
2023-01-19T22:37:26.236Z,19.27
2023-01-19T22:39:53.219Z,20.25
2023-01-19T22:42:19.849Z,22.58
2023-01-19T22:44:46.816Z,27.30
2023-01-19T22:47:13.898Z,15.98
2023-01-19T22:49:40.690Z,16.58
2023-01-19T22:52:07.521Z,17.98
2023-01-19T22:54:34.211Z,18.65
2023-01-19T22:57:00.862Z,22.25
2023-01-19T22:59:27.564Z,20.40
2023-01-19T23:01:54.432Z,19.20
2023-01-19T23:04:21.115Z,16.52
2023-01-19T23:06:50.337Z,16.63
2023-01-19T23:09:18.288Z,15.98
2023-01-19T23:11:51.166Z,25.30
2023-01-19T23:14:20.971Z,27.45
2023-01-19T23:16:47.787Z,23.00
2023-01-19T23:19:16.943Z,25.73
2023-01-19T23:21:44.467Z,18.77
2023-01-19T23:24:11.646Z,22.08
2023-01-19T23:26:38.535Z,21.52
2023-01-19T23:29:07.988Z,23.70
2023-01-19T23:31:36.881Z,25.45
2023-01-19T23:34:06.355Z,29.75
2023-01-19T23:36:35.063Z,24.33
2023-01-19T23:39:05.056Z,24.85
2023-01-19T23:41:34.472Z,25.90
2023-01-19T23:44:01.339Z,17.50
2023-01-19T23:46:28.611Z,24.38
2023-01-19T23:48:55.467Z,25.20
2023-01-19T23:51:24.531Z,26.80
2023-01-19T23:53:51.811Z,23.65
2023-01-19T23:56:22.799Z,23.88
2023-01-19T23:59:07.486Z,26.20
